Terminal Aerodrome Forecast
Issued by NWS

Home | Current Version | Previous Version | Text Only | Print | Product List | Glossary On
Versions: 1 2 3 4 5 6 7 8 9 10 11 12 13 14 15 16 17 18 19 20 21 22 23 24 25 26
000
FTUS46 KSEW 111145
TAFBFI
TAF
KBFI 111145Z 1112/1212 17010KT P6SM -SHRA FEW022 BKN040 OVC060
      TEMPO 1112/1116 17010G20KT BKN022 OVC040
     FM111600 17010KT P6SM -SHRA FEW022 BKN035 OVC050
     FM111800 17007KT P6SM -SHRA BKN029 OVC045
     FM120000 15007KT P6SM BKN040 BKN060 PROB30 1200/1206 -SHRA=

USA.gov is the U.S. government's official web portal to all federal, state and local government web resources and services.